sensor_id;sensor_type;location;lat;lon;timestamp;P1;durP1;ratioP1;P2;durP2;ratioP2
56477;SDS011;42382;53.210;5.772;2023-09-18T00:00:42;44.42;;;27.98;;
56477;SDS011;42382;53.210;5.772;2023-09-18T00:03:09;43.63;;;28.38;;
56477;SDS011;42382;53.210;5.772;2023-09-18T00:05:35;48.35;;;29.83;;
56477;SDS011;42382;53.210;5.772;2023-09-18T00:08:00;42.97;;;28.48;;
56477;SDS011;42382;53.210;5.772;2023-09-18T00:10:29;42.63;;;28.70;;
56477;SDS011;42382;53.210;5.772;2023-09-18T00:12:55;43.25;;;29.92;;
56477;SDS011;42382;53.210;5.772;2023-09-18T00:15:22;53.10;;;32.63;;
56477;SDS011;42382;53.210;5.772;2023-09-18T00:17:47;44.47;;;30.20;;
56477;SDS011;42382;53.210;5.772;2023-09-18T00:20:13;43.85;;;30.92;;
56477;SDS011;42382;53.210;5.772;2023-09-18T00:22:42;46.50;;;29.60;;
56477;SDS011;42382;53.210;5.772;2023-09-18T00:25:08;51.40;;;32.17;;
56477;SDS011;42382;53.210;5.772;2023-09-18T00:27:33;45.67;;;30.55;;
56477;SDS011;42382;53.210;5.772;2023-09-18T00:30:01;45.47;;;30.55;;
56477;SDS011;42382;53.210;5.772;2023-09-18T00:32:28;43.90;;;29.67;;
56477;SDS011;42382;53.210;5.772;2023-09-18T00:34:54;39.38;;;28.15;;
56477;SDS011;42382;53.210;5.772;2023-09-18T00:37:21;35.92;;;26.48;;
56477;SDS011;42382;53.210;5.772;2023-09-18T00:39:46;45.70;;;28.73;;
56477;SDS011;42382;53.210;5.772;2023-09-18T00:42:14;35.22;;;25.13;;
56477;SDS011;42382;53.210;5.772;2023-09-18T00:44:42;49.45;;;28.40;;
56477;SDS011;42382;53.210;5.772;2023-09-18T00:47:08;36.03;;;27.05;;
56477;SDS011;42382;53.210;5.772;2023-09-18T00:49:35;37.83;;;26.50;;
56477;SDS011;42382;53.210;5.772;2023-09-18T00:52:05;36.28;;;26.70;;
56477;SDS011;42382;53.210;5.772;2023-09-18T00:54:32;34.15;;;27.45;;
56477;SDS011;42382;53.210;5.772;2023-09-18T00:56:59;28.80;;;23.80;;
56477;SDS011;42382;53.210;5.772;2023-09-18T00:59:25;30.15;;;23.30;;
56477;SDS011;42382;53.210;5.772;2023-09-18T01:01:54;31.27;;;24.08;;
56477;SDS011;42382;53.210;5.772;2023-09-18T01:04:20;30.08;;;23.75;;
56477;SDS011;42382;53.210;5.772;2023-09-18T01:06:46;30.45;;;24.83;;
56477;SDS011;42382;53.210;5.772;2023-09-18T01:09:15;30.42;;;24.60;;
56477;SDS011;42382;53.210;5.772;2023-09-18T01:11:50;28.13;;;24.70;;
56477;SDS011;42382;53.210;5.772;2023-09-18T01:14:37;28.55;;;22.17;;
56477;SDS011;42382;53.210;5.772;2023-09-18T01:17:19;26.00;;;23.13;;
56477;SDS011;42382;53.210;5.772;2023-09-18T01:19:46;26.10;;;22.27;;
56477;SDS011;42382;53.210;5.772;2023-09-18T01:22:16;31.13;;;24.58;;
56477;SDS011;42382;53.210;5.772;2023-09-18T01:24:46;25.55;;;22.77;;
56477;SDS011;42382;53.210;5.772;2023-09-18T01:27:13;24.95;;;22.17;;
56477;SDS011;42382;53.210;5.772;2023-09-18T01:29:41;30.90;;;24.85;;
56477;SDS011;42382;53.210;5.772;2023-09-18T01:32:08;26.48;;;23.30;;
56477;SDS011;42382;53.210;5.772;2023-09-18T01:34:46;29.73;;;25.13;;
56477;SDS011;42382;53.210;5.772;2023-09-18T01:37:12;26.85;;;22.80;;
56477;SDS011;42382;53.210;5.772;2023-09-18T01:39:41;27.05;;;24.10;;
56477;SDS011;42382;53.210;5.772;2023-09-18T01:42:09;28.42;;;24.50;;
56477;SDS011;42382;53.210;5.772;2023-09-18T01:44:35;26.85;;;23.38;;
56477;SDS011;42382;53.210;5.772;2023-09-18T01:47:06;28.45;;;23.95;;
56477;SDS011;42382;53.210;5.772;2023-09-18T01:49:37;27.30;;;22.88;;
56477;SDS011;42382;53.210;5.772;2023-09-18T01:52:04;30.30;;;24.80;;
56477;SDS011;42382;53.210;5.772;2023-09-18T01:54:31;26.77;;;23.73;;
56477;SDS011;42382;53.210;5.772;2023-09-18T01:56:57;24.95;;;22.05;;
56477;SDS011;42382;53.210;5.772;2023-09-18T01:59:23;26.00;;;22.85;;
56477;SDS011;42382;53.210;5.772;2023-09-18T02:01:49;25.73;;;22.63;;
56477;SDS011;42382;53.210;5.772;2023-09-18T02:04:16;26.48;;;23.67;;
56477;SDS011;42382;53.210;5.772;2023-09-18T02:06:42;27.27;;;24.08;;
56477;SDS011;42382;53.210;5.772;2023-09-18T02:09:08;27.45;;;23.70;;
56477;SDS011;42382;53.210;5.772;2023-09-18T02:11:38;27.45;;;24.38;;
56477;SDS011;42382;53.210;5.772;2023-09-18T02:14:05;26.25;;;22.85;;
56477;SDS011;42382;53.210;5.772;2023-09-18T02:16:34;27.27;;;23.60;;
56477;SDS011;42382;53.210;5.772;2023-09-18T02:19:01;27.42;;;22.58;;
56477;SDS011;42382;53.210;5.772;2023-09-18T02:21:27;25.08;;;22.48;;
56477;SDS011;42382;53.210;5.772;2023-09-18T02:23:53;25.00;;;22.25;;
56477;SDS011;42382;53.210;5.772;2023-09-18T02:26:19;26.48;;;22.73;;
56477;SDS011;42382;53.210;5.772;2023-09-18T02:28:45;23.08;;;20.60;;
56477;SDS011;42382;53.210;5.772;2023-09-18T02:31:11;22.08;;;19.70;;
56477;SDS011;42382;53.210;5.772;2023-09-18T02:33:37;21.90;;;19.42;;
56477;SDS011;42382;53.210;5.772;2023-09-18T02:36:03;22.77;;;20.00;;
56477;SDS011;42382;53.210;5.772;2023-09-18T02:38:29;22.65;;;20.23;;
56477;SDS011;42382;53.210;5.772;2023-09-18T02:40:58;24.30;;;21.65;;
56477;SDS011;42382;53.210;5.772;2023-09-18T02:43:23;22.17;;;19.92;;
56477;SDS011;42382;53.210;5.772;2023-09-18T02:45:49;21.63;;;19.33;;
56477;SDS011;42382;53.210;5.772;2023-09-18T02:48:15;23.02;;;19.73;;
56477;SDS011;42382;53.210;5.772;2023-09-18T02:50:41;22.52;;;19.30;;
56477;SDS011;42382;53.210;5.772;2023-09-18T02:53:07;25.25;;;20.83;;
56477;SDS011;42382;53.210;5.772;2023-09-18T02:55:41;22.13;;;19.70;;
56477;SDS011;42382;53.210;5.772;2023-09-18T02:58:08;22.83;;;18.17;;
56477;SDS011;42382;53.210;5.772;2023-09-18T03:00:35;21.90;;;19.27;;
56477;SDS011;42382;53.210;5.772;2023-09-18T03:03:06;21.38;;;18.65;;
56477;SDS011;42382;53.210;5.772;2023-09-18T03:05:32;21.50;;;19.33;;
56477;SDS011;42382;53.210;5.772;2023-09-18T03:07:59;21.30;;;19.05;;
56477;SDS011;42382;53.210;5.772;2023-09-18T03:10:24;22.17;;;19.25;;
56477;SDS011;42382;53.210;5.772;2023-09-18T03:12:50;19.35;;;17.25;;
56477;SDS011;42382;53.210;5.772;2023-09-18T03:15:15;19.35;;;17.25;;
56477;SDS011;42382;53.210;5.772;2023-09-18T03:17:41;21.60;;;18.80;;
56477;SDS011;42382;53.210;5.772;2023-09-18T03:20:07;19.65;;;17.60;;
56477;SDS011;42382;53.210;5.772;2023-09-18T03:22:34;21.05;;;18.75;;
56477;SDS011;42382;53.210;5.772;2023-09-18T03:25:00;22.83;;;18.55;;
56477;SDS011;42382;53.210;5.772;2023-09-18T03:27:25;19.88;;;17.00;;
56477;SDS011;42382;53.210;5.772;2023-09-18T03:29:57;19.73;;;17.48;;
56477;SDS011;42382;53.210;5.772;2023-09-18T03:32:23;20.60;;;17.98;;
56477;SDS011;42382;53.210;5.772;2023-09-18T03:34:52;24.17;;;17.50;;
56477;SDS011;42382;53.210;5.772;2023-09-18T03:37:18;20.40;;;17.67;;
56477;SDS011;42382;53.210;5.772;2023-09-18T03:39:44;19.95;;;17.80;;
56477;SDS011;42382;53.210;5.772;2023-09-18T03:42:10;19.23;;;17.17;;
56477;SDS011;42382;53.210;5.772;2023-09-18T03:44:35;19.42;;;17.25;;
56477;SDS011;42382;53.210;5.772;2023-09-18T03:47:01;21.02;;;18.75;;
56477;SDS011;42382;53.210;5.772;2023-09-18T03:49:28;21.02;;;18.13;;
56477;SDS011;42382;53.210;5.772;2023-09-18T03:51:54;22.48;;;19.13;;
56477;SDS011;42382;53.210;5.772;2023-09-18T03:54:20;21.45;;;19.15;;
56477;SDS011;42382;53.210;5.772;2023-09-18T03:56:46;21.13;;;18.38;;
56477;SDS011;42382;53.210;5.772;2023-09-18T03:59:14;19.85;;;17.70;;
56477;SDS011;42382;53.210;5.772;2023-09-18T04:01:40;20.08;;;18.00;;
56477;SDS011;42382;53.210;5.772;2023-09-18T04:04:05;20.95;;;18.67;;
56477;SDS011;42382;53.210;5.772;2023-09-18T04:06:40;20.42;;;17.85;;
56477;SDS011;42382;53.210;5.772;2023-09-18T04:09:07;20.23;;;18.00;;
56477;SDS011;42382;53.210;5.772;2023-09-18T04:11:32;21.23;;;19.02;;
56477;SDS011;42382;53.210;5.772;2023-09-18T04:14:00;19.60;;;17.48;;
56477;SDS011;42382;53.210;5.772;2023-09-18T04:16:26;22.27;;;18.23;;
56477;SDS011;42382;53.210;5.772;2023-09-18T04:19:03;22.00;;;18.70;;
56477;SDS011;42382;53.210;5.772;2023-09-18T04:21:29;20.38;;;18.17;;
56477;SDS011;42382;53.210;5.772;2023-09-18T04:23:55;22.13;;;19.35;;
56477;SDS011;42382;53.210;5.772;2023-09-18T04:26:25;21.25;;;17.83;;
56477;SDS011;42382;53.210;5.772;2023-09-18T04:28:59;27.23;;;19.58;;
56477;SDS011;42382;53.210;5.772;2023-09-18T04:31:25;19.20;;;17.00;;
56477;SDS011;42382;53.210;5.772;2023-09-18T04:33:52;22.73;;;18.95;;
56477;SDS011;42382;53.210;5.772;2023-09-18T04:36:18;21.10;;;18.77;;
56477;SDS011;42382;53.210;5.772;2023-09-18T04:38:44;25.08;;;18.63;;
56477;SDS011;42382;53.210;5.772;2023-09-18T04:41:10;21.73;;;18.25;;
56477;SDS011;42382;53.210;5.772;2023-09-18T04:43:36;25.05;;;18.92;;
56477;SDS011;42382;53.210;5.772;2023-09-18T04:46:03;20.60;;;17.20;;
56477;SDS011;42382;53.210;5.772;2023-09-18T04:48:31;24.55;;;17.95;;
56477;SDS011;42382;53.210;5.772;2023-09-18T04:50:57;21.30;;;17.77;;
56477;SDS011;42382;53.210;5.772;2023-09-18T04:53:23;22.83;;;18.42;;
56477;SDS011;42382;53.210;5.772;2023-09-18T04:55:49;19.33;;;17.17;;
56477;SDS011;42382;53.210;5.772;2023-09-18T04:58:15;23.00;;;18.25;;
56477;SDS011;42382;53.210;5.772;2023-09-18T05:00:42;21.20;;;17.58;;
56477;SDS011;42382;53.210;5.772;2023-09-18T05:03:09;20.10;;;17.30;;
56477;SDS011;42382;53.210;5.772;2023-09-18T05:05:35;19.02;;;16.40;;
56477;SDS011;42382;53.210;5.772;2023-09-18T05:08:01;23.80;;;18.00;;
56477;SDS011;42382;53.210;5.772;2023-09-18T05:10:29;26.20;;;17.17;;
56477;SDS011;42382;53.210;5.772;2023-09-18T05:12:55;21.98;;;17.60;;
56477;SDS011;42382;53.210;5.772;2023-09-18T05:15:26;19.45;;;15.98;;
56477;SDS011;42382;53.210;5.772;2023-09-18T05:17:54;19.17;;;16.80;;
56477;SDS011;42382;53.210;5.772;2023-09-18T05:20:23;18.83;;;16.77;;
56477;SDS011;42382;53.210;5.772;2023-09-18T05:22:50;20.77;;;17.50;;
56477;SDS011;42382;53.210;5.772;2023-09-18T05:25:20;21.25;;;17.92;;
56477;SDS011;42382;53.210;5.772;2023-09-18T05:27:50;19.85;;;16.70;;
56477;SDS011;42382;53.210;5.772;2023-09-18T05:30:23;20.70;;;17.25;;
56477;SDS011;42382;53.210;5.772;2023-09-18T05:32:56;18.92;;;15.82;;
56477;SDS011;42382;53.210;5.772;2023-09-18T05:35:29;21.50;;;16.83;;
56477;SDS011;42382;53.210;5.772;2023-09-18T05:37:55;22.27;;;17.35;;
56477;SDS011;42382;53.210;5.772;2023-09-18T05:40:22;20.33;;;17.40;;
56477;SDS011;42382;53.210;5.772;2023-09-18T05:42:48;20.10;;;17.23;;
56477;SDS011;42382;53.210;5.772;2023-09-18T05:45:14;23.17;;;17.90;;
56477;SDS011;42382;53.210;5.772;2023-09-18T05:47:40;22.17;;;17.10;;
56477;SDS011;42382;53.210;5.772;2023-09-18T05:50:06;20.63;;;17.20;;
56477;SDS011;42382;53.210;5.772;2023-09-18T05:52:33;19.85;;;17.17;;
56477;SDS011;42382;53.210;5.772;2023-09-18T05:55:00;23.75;;;17.30;;
56477;SDS011;42382;53.210;5.772;2023-09-18T05:57:27;23.00;;;17.80;;
56477;SDS011;42382;53.210;5.772;2023-09-18T05:59:54;20.63;;;16.45;;
56477;SDS011;42382;53.210;5.772;2023-09-18T06:02:20;25.08;;;17.52;;
56477;SDS011;42382;53.210;5.772;2023-09-18T06:04:46;20.98;;;16.88;;
56477;SDS011;42382;53.210;5.772;2023-09-18T06:07:11;21.50;;;16.65;;
56477;SDS011;42382;53.210;5.772;2023-09-18T06:09:38;24.70;;;17.70;;
56477;SDS011;42382;53.210;5.772;2023-09-18T06:12:04;26.25;;;17.60;;
56477;SDS011;42382;53.210;5.772;2023-09-18T06:14:31;22.63;;;16.90;;
56477;SDS011;42382;53.210;5.772;2023-09-18T06:16:59;18.23;;;16.20;;
56477;SDS011;42382;53.210;5.772;2023-09-18T06:19:24;19.80;;;16.00;;
56477;SDS011;42382;53.210;5.772;2023-09-18T06:21:50;17.48;;;14.90;;
56477;SDS011;42382;53.210;5.772;2023-09-18T06:24:15;18.70;;;14.80;;
56477;SDS011;42382;53.210;5.772;2023-09-18T06:26:41;17.52;;;15.05;;
56477;SDS011;42382;53.210;5.772;2023-09-18T06:29:07;19.08;;;13.98;;
56477;SDS011;42382;53.210;5.772;2023-09-18T06:31:34;18.80;;;13.35;;
56477;SDS011;42382;53.210;5.772;2023-09-18T06:34:00;19.52;;;12.88;;
56477;SDS011;42382;53.210;5.772;2023-09-18T06:36:26;16.48;;;12.80;;
56477;SDS011;42382;53.210;5.772;2023-09-18T06:38:51;20.45;;;14.25;;
56477;SDS011;42382;53.210;5.772;2023-09-18T06:41:18;24.95;;;14.50;;
56477;SDS011;42382;53.210;5.772;2023-09-18T06:43:43;17.05;;;12.35;;
56477;SDS011;42382;53.210;5.772;2023-09-18T06:46:09;15.98;;;11.10;;
56477;SDS011;42382;53.210;5.772;2023-09-18T06:48:35;17.55;;;8.68;;
56477;SDS011;42382;53.210;5.772;2023-09-18T06:51:01;13.57;;;6.80;;
56477;SDS011;42382;53.210;5.772;2023-09-18T06:53:26;8.57;;;5.05;;
56477;SDS011;42382;53.210;5.772;2023-09-18T06:55:55;10.65;;;5.05;;
56477;SDS011;42382;53.210;5.772;2023-09-18T06:58:21;7.30;;;4.57;;
56477;SDS011;42382;53.210;5.772;2023-09-18T07:00:47;8.48;;;4.53;;
56477;SDS011;42382;53.210;5.772;2023-09-18T07:03:15;8.27;;;4.53;;
56477;SDS011;42382;53.210;5.772;2023-09-18T07:05:41;6.22;;;4.00;;
56477;SDS011;42382;53.210;5.772;2023-09-18T07:08:08;7.22;;;4.22;;
56477;SDS011;42382;53.210;5.772;2023-09-18T07:10:36;7.15;;;4.15;;
56477;SDS011;42382;53.210;5.772;2023-09-18T07:13:04;6.57;;;3.85;;
56477;SDS011;42382;53.210;5.772;2023-09-18T07:15:30;5.28;;;3.25;;
56477;SDS011;42382;53.210;5.772;2023-09-18T07:17:55;5.72;;;3.50;;
56477;SDS011;42382;53.210;5.772;2023-09-18T07:20:21;7.95;;;3.70;;
56477;SDS011;42382;53.210;5.772;2023-09-18T07:22:49;8.07;;;3.83;;
56477;SDS011;42382;53.210;5.772;2023-09-18T07:25:15;8.63;;;3.47;;
56477;SDS011;42382;53.210;5.772;2023-09-18T07:27:41;6.63;;;3.08;;
56477;SDS011;42382;53.210;5.772;2023-09-18T07:30:10;5.88;;;3.92;;
56477;SDS011;42382;53.210;5.772;2023-09-18T07:32:39;9.38;;;3.85;;
56477;SDS011;42382;53.210;5.772;2023-09-18T07:35:06;9.18;;;3.70;;
56477;SDS011;42382;53.210;5.772;2023-09-18T07:37:32;8.13;;;4.47;;
56477;SDS011;42382;53.210;5.772;2023-09-18T07:39:58;7.10;;;4.57;;
56477;SDS011;42382;53.210;5.772;2023-09-18T07:42:27;4.55;;;3.72;;
56477;SDS011;42382;53.210;5.772;2023-09-18T07:44:53;8.73;;;4.60;;
56477;SDS011;42382;53.210;5.772;2023-09-18T07:47:19;7.15;;;4.43;;
56477;SDS011;42382;53.210;5.772;2023-09-18T07:49:45;8.98;;;4.78;;
56477;SDS011;42382;53.210;5.772;2023-09-18T07:52:11;6.95;;;4.82;;
56477;SDS011;42382;53.210;5.772;2023-09-18T07:54:37;8.68;;;5.15;;
56477;SDS011;42382;53.210;5.772;2023-09-18T07:57:03;6.25;;;4.60;;
56477;SDS011;42382;53.210;5.772;2023-09-18T07:59:28;8.48;;;5.25;;
56477;SDS011;42382;53.210;5.772;2023-09-18T08:01:54;8.25;;;5.93;;
56477;SDS011;42382;53.210;5.772;2023-09-18T08:04:20;11.93;;;6.97;;
56477;SDS011;42382;53.210;5.772;2023-09-18T08:06:46;13.98;;;7.57;;
56477;SDS011;42382;53.210;5.772;2023-09-18T08:09:12;12.13;;;7.95;;
56477;SDS011;42382;53.210;5.772;2023-09-18T08:11:41;11.65;;;7.03;;
56477;SDS011;42382;53.210;5.772;2023-09-18T08:14:08;11.60;;;7.47;;
56477;SDS011;42382;53.210;5.772;2023-09-18T08:16:34;11.80;;;7.25;;
56477;SDS011;42382;53.210;5.772;2023-09-18T08:19:01;13.38;;;6.88;;
56477;SDS011;42382;53.210;5.772;2023-09-18T08:21:26;12.85;;;7.38;;
56477;SDS011;42382;53.210;5.772;2023-09-18T08:23:54;8.75;;;5.82;;
56477;SDS011;42382;53.210;5.772;2023-09-18T08:26:20;9.82;;;6.65;;
56477;SDS011;42382;53.210;5.772;2023-09-18T08:28:47;12.20;;;6.28;;
56477;SDS011;42382;53.210;5.772;2023-09-18T08:31:12;8.77;;;6.22;;
56477;SDS011;42382;53.210;5.772;2023-09-18T08:33:39;9.35;;;5.85;;
56477;SDS011;42382;53.210;5.772;2023-09-18T08:36:04;8.05;;;6.03;;
56477;SDS011;42382;53.210;5.772;2023-09-18T08:38:30;12.73;;;7.20;;
56477;SDS011;42382;53.210;5.772;2023-09-18T08:40:56;10.80;;;6.78;;
56477;SDS011;42382;53.210;5.772;2023-09-18T08:43:23;12.93;;;6.07;;
56477;SDS011;42382;53.210;5.772;2023-09-18T08:45:51;10.00;;;5.65;;
56477;SDS011;42382;53.210;5.772;2023-09-18T08:48:18;9.77;;;5.00;;
56477;SDS011;42382;53.210;5.772;2023-09-18T08:50:45;8.95;;;5.43;;
56477;SDS011;42382;53.210;5.772;2023-09-18T08:53:13;7.20;;;5.20;;
56477;SDS011;42382;53.210;5.772;2023-09-18T08:55:39;10.57;;;5.10;;
56477;SDS011;42382;53.210;5.772;2023-09-18T08:58:06;11.32;;;6.03;;
56477;SDS011;42382;53.210;5.772;2023-09-18T09:00:33;13.43;;;5.93;;
56477;SDS011;42382;53.210;5.772;2023-09-18T09:03:02;11.15;;;5.85;;
56477;SDS011;42382;53.210;5.772;2023-09-18T09:05:29;9.75;;;6.25;;
56477;SDS011;42382;53.210;5.772;2023-09-18T09:07:56;12.30;;;7.30;;
56477;SDS011;42382;53.210;5.772;2023-09-18T09:10:22;12.25;;;6.45;;
56477;SDS011;42382;53.210;5.772;2023-09-18T09:12:52;10.43;;;6.97;;
56477;SDS011;42382;53.210;5.772;2023-09-18T09:15:25;10.05;;;6.40;;
56477;SDS011;42382;53.210;5.772;2023-09-18T09:18:01;11.88;;;7.68;;
56477;SDS011;42382;53.210;5.772;2023-09-18T09:20:31;10.82;;;8.20;;
56477;SDS011;42382;53.210;5.772;2023-09-18T09:23:02;13.98;;;8.85;;
56477;SDS011;42382;53.210;5.772;2023-09-18T09:25:29;15.20;;;7.95;;
56477;SDS011;42382;53.210;5.772;2023-09-18T09:27:59;10.15;;;8.57;;
56477;SDS011;42382;53.210;5.772;2023-09-18T09:30:28;14.85;;;9.32;;
56477;SDS011;42382;53.210;5.772;2023-09-18T09:32:55;14.68;;;10.50;;
56477;SDS011;42382;53.210;5.772;2023-09-18T09:35:26;13.05;;;9.80;;
56477;SDS011;42382;53.210;5.772;2023-09-18T09:38:00;14.20;;;10.77;;
56477;SDS011;42382;53.210;5.772;2023-09-18T09:40:27;15.00;;;11.60;;
56477;SDS011;42382;53.210;5.772;2023-09-18T09:42:55;13.95;;;11.15;;
56477;SDS011;42382;53.210;5.772;2023-09-18T09:45:29;18.50;;;11.57;;
56477;SDS011;42382;53.210;5.772;2023-09-18T09:48:00;12.40;;;10.20;;
56477;SDS011;42382;53.210;5.772;2023-09-18T09:50:29;13.85;;;10.88;;
56477;SDS011;42382;53.210;5.772;2023-09-18T09:52:57;14.25;;;11.27;;
56477;SDS011;42382;53.210;5.772;2023-09-18T09:55:27;15.55;;;11.57;;
56477;SDS011;42382;53.210;5.772;2023-09-18T09:57:59;11.23;;;10.05;;
56477;SDS011;42382;53.210;5.772;2023-09-18T10:00:33;13.27;;;10.80;;
56477;SDS011;42382;53.210;5.772;2023-09-18T10:03:12;12.77;;;11.32;;
56477;SDS011;42382;53.210;5.772;2023-09-18T10:05:40;11.18;;;10.07;;
56477;SDS011;42382;53.210;5.772;2023-09-18T10:08:08;14.02;;;11.10;;
56477;SDS011;42382;53.210;5.772;2023-09-18T10:10:46;12.57;;;10.90;;
56477;SDS011;42382;53.210;5.772;2023-09-18T10:13:17;16.25;;;11.35;;
56477;SDS011;42382;53.210;5.772;2023-09-18T10:15:45;12.90;;;11.38;;
56477;SDS011;42382;53.210;5.772;2023-09-18T10:18:21;13.93;;;12.13;;
56477;SDS011;42382;53.210;5.772;2023-09-18T10:24:04;12.18;;;11.00;;
56477;SDS011;42382;53.210;5.772;2023-09-18T10:26:36;10.77;;;9.15;;
56477;SDS011;42382;53.210;5.772;2023-09-18T10:29:17;11.32;;;9.75;;
56477;SDS011;42382;53.210;5.772;2023-09-18T10:31:46;13.85;;;9.80;;
56477;SDS011;42382;53.210;5.772;2023-09-18T10:34:13;10.80;;;9.30;;
56477;SDS011;42382;53.210;5.772;2023-09-18T10:36:41;10.95;;;9.82;;
56477;SDS011;42382;53.210;5.772;2023-09-18T10:39:08;10.90;;;9.20;;
56477;SDS011;42382;53.210;5.772;2023-09-18T10:41:36;10.13;;;8.65;;
56477;SDS011;42382;53.210;5.772;2023-09-18T10:44:02;9.68;;;7.70;;
56477;SDS011;42382;53.210;5.772;2023-09-18T10:46:29;13.63;;;7.97;;
56477;SDS011;42382;53.210;5.772;2023-09-18T10:48:56;7.97;;;6.28;;
56477;SDS011;42382;53.210;5.772;2023-09-18T10:51:23;6.53;;;4.50;;
56477;SDS011;42382;53.210;5.772;2023-09-18T10:53:49;5.90;;;3.63;;
56477;SDS011;42382;53.210;5.772;2023-09-18T10:56:17;7.85;;;6.53;;
56477;SDS011;42382;53.210;5.772;2023-09-18T10:58:45;9.30;;;5.47;;
56477;SDS011;42382;53.210;5.772;2023-09-18T11:01:12;6.00;;;4.05;;
56477;SDS011;42382;53.210;5.772;2023-09-18T11:03:42;3.80;;;2.88;;
56477;SDS011;42382;53.210;5.772;2023-09-18T11:09:44;4.60;;;2.47;;
56477;SDS011;42382;53.210;5.772;2023-09-18T11:12:10;6.60;;;2.75;;
56477;SDS011;42382;53.210;5.772;2023-09-18T11:20:03;6.72;;;1.55;;
56477;SDS011;42382;53.210;5.772;2023-09-18T11:22:34;4.03;;;1.70;;
56477;SDS011;42382;53.210;5.772;2023-09-18T11:28:13;7.72;;;1.50;;
56477;SDS011;42382;53.210;5.772;2023-09-18T11:30:50;3.58;;;1.45;;
56477;SDS011;42382;53.210;5.772;2023-09-18T11:36:05;5.72;;;1.70;;
56477;SDS011;42382;53.210;5.772;2023-09-18T11:46:38;4.85;;;1.95;;
56477;SDS011;42382;53.210;5.772;2023-09-18T11:49:08;4.75;;;1.55;;
56477;SDS011;42382;53.210;5.772;2023-09-18T11:51:36;6.07;;;1.98;;
56477;SDS011;42382;53.210;5.772;2023-09-18T11:54:02;4.10;;;1.38;;
56477;SDS011;42382;53.210;5.772;2023-09-18T11:56:32;6.93;;;1.90;;
56477;SDS011;42382;53.210;5.772;2023-09-18T11:58:59;6.22;;;1.98;;
56477;SDS011;42382;53.210;5.772;2023-09-18T12:01:32;5.28;;;2.30;;
56477;SDS011;42382;53.210;5.772;2023-09-18T12:04:01;4.30;;;2.05;;
56477;SDS011;42382;53.210;5.772;2023-09-18T12:06:27;5.72;;;2.53;;
56477;SDS011;42382;53.210;5.772;2023-09-18T12:08:53;4.70;;;2.42;;
56477;SDS011;42382;53.210;5.772;2023-09-18T12:11:19;7.57;;;3.55;;
56477;SDS011;42382;53.210;5.772;2023-09-18T12:13:46;8.73;;;3.20;;
56477;SDS011;42382;53.210;5.772;2023-09-18T12:16:15;5.50;;;3.83;;
56477;SDS011;42382;53.210;5.772;2023-09-18T12:18:44;8.57;;;3.38;;
56477;SDS011;42382;53.210;5.772;2023-09-18T12:21:12;5.03;;;3.80;;
56477;SDS011;42382;53.210;5.772;2023-09-18T12:23:40;8.70;;;3.80;;
56477;SDS011;42382;53.210;5.772;2023-09-18T12:26:10;6.13;;;4.15;;
56477;SDS011;42382;53.210;5.772;2023-09-18T12:28:41;4.35;;;3.95;;
56477;SDS011;42382;53.210;5.772;2023-09-18T12:31:14;4.47;;;3.90;;
56477;SDS011;42382;53.210;5.772;2023-09-18T12:33:41;7.70;;;3.95;;
56477;SDS011;42382;53.210;5.772;2023-09-18T12:36:09;5.60;;;3.45;;
56477;SDS011;42382;53.210;5.772;2023-09-18T12:38:35;6.88;;;3.65;;
56477;SDS011;42382;53.210;5.772;2023-09-18T12:41:02;7.30;;;2.97;;
56477;SDS011;42382;53.210;5.772;2023-09-18T12:43:33;4.50;;;3.30;;
56477;SDS011;42382;53.210;5.772;2023-09-18T13:42:50;5.40;;;4.55;;
56477;SDS011;42382;53.210;5.772;2023-09-18T13:45:16;6.88;;;5.40;;
56477;SDS011;42382;53.210;5.772;2023-09-18T13:47:42;6.00;;;3.83;;
56477;SDS011;42382;53.210;5.772;2023-09-18T13:50:07;4.15;;;2.38;;
56477;SDS011;42382;53.210;5.772;2023-09-18T13:52:34;3.20;;;1.80;;
56477;SDS011;42382;53.210;5.772;2023-09-18T13:55:01;1.63;;;1.33;;
56477;SDS011;42382;53.210;5.772;2023-09-18T13:57:33;3.05;;;1.17;;
56477;SDS011;42382;53.210;5.772;2023-09-18T14:00:00;5.47;;;1.27;;
56477;SDS011;42382;53.210;5.772;2023-09-18T14:02:26;1.42;;;0.70;;
56477;SDS011;42382;53.210;5.772;2023-09-18T14:04:53;2.53;;;1.63;;
56477;SDS011;42382;53.210;5.772;2023-09-18T14:07:21;2.72;;;1.60;;
56477;SDS011;42382;53.210;5.772;2023-09-18T14:09:47;4.10;;;2.20;;
56477;SDS011;42382;53.210;5.772;2023-09-18T14:12:13;5.05;;;2.92;;
56477;SDS011;42382;53.210;5.772;2023-09-18T14:14:40;3.63;;;3.22;;
56477;SDS011;42382;53.210;5.772;2023-09-18T14:17:07;8.25;;;4.35;;
56477;SDS011;42382;53.210;5.772;2023-09-18T14:19:36;10.52;;;5.95;;
56477;SDS011;42382;53.210;5.772;2023-09-18T14:22:05;7.93;;;3.17;;
56477;SDS011;42382;53.210;5.772;2023-09-18T14:24:31;5.68;;;2.67;;
56477;SDS011;42382;53.210;5.772;2023-09-18T14:26:59;4.55;;;1.80;;
56477;SDS011;42382;53.210;5.772;2023-09-18T14:29:25;4.55;;;2.10;;
56477;SDS011;42382;53.210;5.772;2023-09-18T14:31:52;3.22;;;2.92;;
56477;SDS011;42382;53.210;5.772;2023-09-18T14:34:18;6.60;;;5.32;;
56477;SDS011;42382;53.210;5.772;2023-09-18T14:36:43;4.00;;;2.80;;
56477;SDS011;42382;53.210;5.772;2023-09-18T14:39:09;2.95;;;1.80;;
56477;SDS011;42382;53.210;5.772;2023-09-18T14:41:36;3.75;;;2.03;;
56477;SDS011;42382;53.210;5.772;2023-09-18T14:44:06;1.80;;;1.50;;
56477;SDS011;42382;53.210;5.772;2023-09-18T14:46:34;3.53;;;1.85;;
56477;SDS011;42382;53.210;5.772;2023-09-18T14:49:00;2.80;;;1.80;;
56477;SDS011;42382;53.210;5.772;2023-09-18T14:51:26;3.67;;;2.20;;
56477;SDS011;42382;53.210;5.772;2023-09-18T14:53:56;2.72;;;2.20;;
56477;SDS011;42382;53.210;5.772;2023-09-18T14:56:25;2.42;;;2.05;;
56477;SDS011;42382;53.210;5.772;2023-09-18T14:58:51;3.30;;;2.78;;
56477;SDS011;42382;53.210;5.772;2023-09-18T15:01:21;3.72;;;2.50;;
56477;SDS011;42382;53.210;5.772;2023-09-18T15:03:47;3.70;;;2.88;;
56477;SDS011;42382;53.210;5.772;2023-09-18T15:06:16;4.75;;;3.20;;
56477;SDS011;42382;53.210;5.772;2023-09-18T15:08:42;4.93;;;3.60;;
56477;SDS011;42382;53.210;5.772;2023-09-18T15:11:08;4.85;;;4.28;;
56477;SDS011;42382;53.210;5.772;2023-09-18T15:13:34;6.88;;;4.57;;
56477;SDS011;42382;53.210;5.772;2023-09-18T15:16:01;6.40;;;3.47;;
56477;SDS011;42382;53.210;5.772;2023-09-18T15:18:27;5.50;;;3.83;;
56477;SDS011;42382;53.210;5.772;2023-09-18T15:20:53;6.72;;;3.05;;
56477;SDS011;42382;53.210;5.772;2023-09-18T15:23:22;6.88;;;3.45;;
56477;SDS011;42382;53.210;5.772;2023-09-18T15:25:50;4.15;;;3.08;;
56477;SDS011;42382;53.210;5.772;2023-09-18T15:28:18;7.00;;;3.45;;
56477;SDS011;42382;53.210;5.772;2023-09-18T15:30:45;12.20;;;4.03;;
56477;SDS011;42382;53.210;5.772;2023-09-18T15:33:11;6.93;;;4.82;;
56477;SDS011;42382;53.210;5.772;2023-09-18T15:35:38;7.47;;;5.20;;
56477;SDS011;42382;53.210;5.772;2023-09-18T15:38:04;7.10;;;4.95;;
56477;SDS011;42382;53.210;5.772;2023-09-18T15:40:31;9.77;;;5.50;;
56477;SDS011;42382;53.210;5.772;2023-09-18T15:42:57;6.35;;;5.70;;
56477;SDS011;42382;53.210;5.772;2023-09-18T15:45:23;8.23;;;6.10;;
56477;SDS011;42382;53.210;5.772;2023-09-18T15:47:48;8.48;;;5.40;;
56477;SDS011;42382;53.210;5.772;2023-09-18T15:50:14;7.07;;;6.03;;
56477;SDS011;42382;53.210;5.772;2023-09-18T15:52:40;7.28;;;5.22;;
56477;SDS011;42382;53.210;5.772;2023-09-18T15:55:06;6.57;;;5.90;;
56477;SDS011;42382;53.210;5.772;2023-09-18T15:57:33;7.32;;;5.97;;